createdAt,value
2024-01-16T00:00:44.305Z,672.5
2024-01-16T00:01:46.144Z,672.9
2024-01-16T00:02:48.339Z,673.3
2024-01-16T00:03:50.272Z,672.9
2024-01-16T00:04:52.004Z,672.5
2024-01-16T00:05:53.825Z,672.1
2024-01-16T00:06:55.969Z,671.6
2024-01-16T00:07:57.701Z,670.4
2024-01-16T00:08:59.472Z,669.3
2024-01-16T00:10:01.194Z,669.7
2024-01-16T00:11:03.099Z,670.1
2024-01-16T00:12:04.949Z,670.7
2024-01-16T00:13:06.876Z,670.7
2024-01-16T00:14:08.756Z,670.2
2024-01-16T00:15:10.539Z,669.5
2024-01-16T00:16:12.470Z,669.5
2024-01-16T00:17:14.322Z,670
2024-01-16T00:18:17.205Z,671.1
2024-01-16T00:19:19.503Z,671.1
2024-01-16T00:20:21.309Z,670
2024-01-16T00:21:22.983Z,668.6
2024-01-16T00:22:24.699Z,667.8
2024-01-16T00:23:29.724Z,668.2
2024-01-16T00:24:31.499Z,669.9
2024-01-16T00:25:33.213Z,671.1
2024-01-16T00:26:35.347Z,671.3
2024-01-16T00:27:37.203Z,670.9
2024-01-16T00:28:38.939Z,671.3
2024-01-16T00:29:44.130Z,670.8
2024-01-16T00:30:45.852Z,670
2024-01-16T00:31:47.640Z,669.5
2024-01-16T00:32:50.105Z,669.1
2024-01-16T00:33:52.535Z,669.3
2024-01-16T00:34:54.332Z,670.2
2024-01-16T00:35:56.440Z,669.7
2024-01-16T00:36:58.179Z,667.8
2024-01-16T00:37:59.975Z,667.8
2024-01-16T00:39:01.712Z,668.2
2024-01-16T00:40:03.453Z,670.4
2024-01-16T00:41:05.841Z,671.1
2024-01-16T00:42:08.115Z,668.7
2024-01-16T00:43:09.913Z,667.2
2024-01-16T00:44:11.730Z,667.3
2024-01-16T00:45:13.610Z,666.9
2024-01-16T00:46:15.374Z,666.3
2024-01-16T00:47:17.394Z,667.2
2024-01-16T00:48:19.774Z,668.1
2024-01-16T00:49:23.195Z,668.4
2024-01-16T00:50:27.630Z,667.6
2024-01-16T00:51:29.424Z,666.3
2024-01-16T00:52:31.170Z,665.5
2024-01-16T00:53:33.029Z,666.3
2024-01-16T00:54:34.821Z,668.8
2024-01-16T00:55:36.498Z,669.6
2024-01-16T00:56:38.812Z,667.5
2024-01-16T00:57:40.716Z,666.8
2024-01-16T00:58:42.506Z,666.9
2024-01-16T00:59:44.466Z,666
2024-01-16T01:00:46.407Z,665.5
2024-01-16T01:01:48.153Z,665.3
2024-01-16T01:02:50.212Z,664.7
2024-01-16T01:03:52.408Z,663.8
2024-01-16T01:04:54.308Z,665.3
2024-01-16T01:05:56.830Z,667.5
2024-01-16T01:06:58.699Z,666.4
2024-01-16T01:08:00.446Z,664.3
2024-01-16T01:09:02.167Z,663.4
2024-01-16T01:10:03.963Z,664.9
2024-01-16T01:11:06.136Z,666.6
2024-01-16T01:12:07.907Z,665.9
2024-01-16T01:13:09.649Z,664.4
2024-01-16T01:14:11.936Z,664.6
2024-01-16T01:15:14.019Z,664.9
2024-01-16T01:16:16.042Z,665.7
2024-01-16T01:17:18.104Z,666.1
2024-01-16T01:18:20.841Z,665.2
2024-01-16T01:19:22.986Z,664.9
2024-01-16T01:20:25.367Z,665.6
2024-01-16T01:21:27.099Z,665.2
2024-01-16T01:22:28.784Z,664.7
2024-01-16T01:23:30.815Z,664.9
2024-01-16T01:24:32.588Z,664.4
2024-01-16T01:25:34.320Z,663.7
2024-01-16T01:26:36.486Z,663.3
2024-01-16T01:27:38.206Z,664.6
2024-01-16T01:28:40.039Z,665.2
2024-01-16T01:29:41.912Z,665.6
2024-01-16T01:30:44.072Z,664.7
2024-01-16T01:31:46.208Z,664.3
2024-01-16T01:32:48.826Z,664
2024-01-16T01:33:51.048Z,664.8
2024-01-16T01:34:52.917Z,666.4
2024-01-16T01:35:55.068Z,667
2024-01-16T01:36:56.791Z,666.7
2024-01-16T01:37:58.565Z,665.7
2024-01-16T01:39:00.380Z,664.9
2024-01-16T01:40:02.136Z,665.4
2024-01-16T01:41:09.173Z,665.9
2024-01-16T01:42:11.080Z,666
2024-01-16T01:43:12.828Z,665.3
2024-01-16T01:44:14.896Z,665.4
2024-01-16T01:45:17.003Z,665.6
2024-01-16T01:46:19.005Z,665.6
2024-01-16T01:47:20.992Z,666
2024-01-16T01:48:23.546Z,666
2024-01-16T01:49:25.948Z,666.1
2024-01-16T01:50:28.015Z,665.8
2024-01-16T01:51:30.190Z,665.6
2024-01-16T01:52:31.968Z,665.3
2024-01-16T01:53:33.956Z,665.7
2024-01-16T01:54:35.768Z,666.1
2024-01-16T01:55:37.655Z,666.2
2024-01-16T01:56:39.645Z,665.9
2024-01-16T01:57:41.459Z,665.9
2024-01-16T01:58:43.208Z,665.9
2024-01-16T01:59:45.357Z,665.3
2024-01-16T02:00:47.445Z,664.7
2024-01-16T02:01:49.689Z,663.9
2024-01-16T02:02:52.017Z,664.4
2024-01-16T02:03:53.896Z,664.7
2024-01-16T02:04:56.088Z,665.1
2024-01-16T02:05:58.757Z,665.7
2024-01-16T02:07:00.778Z,665.6
2024-01-16T02:08:02.678Z,665.4
2024-01-16T02:09:04.492Z,664.7
2024-01-16T02:10:06.321Z,664.8
2024-01-16T02:11:08.358Z,665.2
2024-01-16T02:12:10.156Z,666
2024-01-16T02:13:11.935Z,666.2
2024-01-16T02:14:13.957Z,665.9
2024-01-16T02:15:15.785Z,664.9
2024-01-16T02:16:17.532Z,664.3
2024-01-16T02:17:19.711Z,663.5
2024-01-16T02:18:21.885Z,663.8
2024-01-16T02:19:24.034Z,663.9
2024-01-16T02:20:26.107Z,664
2024-01-16T02:21:27.896Z,664
2024-01-16T02:22:29.650Z,665.1
2024-01-16T02:23:31.611Z,664.8
2024-01-16T02:24:33.395Z,664.7
2024-01-16T02:25:35.194Z,663.6
2024-01-16T02:26:38.272Z,663.3
2024-01-16T02:27:40.053Z,663.5
2024-01-16T02:28:41.829Z,663.5
2024-01-16T02:29:47.006Z,664.4
2024-01-16T02:30:49.647Z,664.1
2024-01-16T02:31:51.461Z,663.4
2024-01-16T02:32:53.908Z,663.3
2024-01-16T02:33:56.557Z,662.9
2024-01-16T02:34:58.356Z,663.3
2024-01-16T02:36:00.145Z,663.9
2024-01-16T02:37:01.891Z,663.8
2024-01-16T02:38:03.933Z,663.5
2024-01-16T02:39:05.721Z,663.1
2024-01-16T02:40:08.144Z,662.5
2024-01-16T02:41:10.110Z,662.5
2024-01-16T02:42:11.861Z,661.4
2024-01-16T02:43:13.604Z,660.7
2024-01-16T02:44:15.677Z,661.3
2024-01-16T02:45:17.531Z,661.6
2024-01-16T02:46:19.317Z,661.4
2024-01-16T02:47:21.462Z,661.6
2024-01-16T02:48:23.794Z,661.7
2024-01-16T02:49:25.899Z,660.9
2024-01-16T02:50:27.970Z,661.2
2024-01-16T02:51:29.727Z,661.1
2024-01-16T02:52:31.447Z,661.1
2024-01-16T02:53:33.466Z,660.1
2024-01-16T02:54:35.247Z,660
2024-01-16T02:55:37.046Z,659.7
2024-01-16T02:56:39.208Z,660
2024-01-16T02:57:41.176Z,659.6
2024-01-16T02:58:42.912Z,658.7
2024-01-16T02:59:45.158Z,657.8
2024-01-16T03:00:47.316Z,657.7
2024-01-16T03:01:49.097Z,658.1
2024-01-16T03:02:51.539Z,657.9
2024-01-16T03:03:53.812Z,657
2024-01-16T03:04:55.543Z,656
2024-01-16T03:05:59.084Z,654.7
2024-01-16T03:07:01.374Z,654
2024-01-16T03:08:03.111Z,654.6
2024-01-16T03:09:04.911Z,654.6
2024-01-16T03:10:06.604Z,654.5
2024-01-16T03:11:08.801Z,653.6
2024-01-16T03:12:10.579Z,653.7
2024-01-16T03:13:12.382Z,653.1
2024-01-16T03:14:14.516Z,653.3
2024-01-16T03:15:16.322Z,653.5
2024-01-16T03:16:18.097Z,653.4
2024-01-16T03:17:20.296Z,652.8
2024-01-16T03:18:23.566Z,652.8
2024-01-16T03:19:26.195Z,652.2
2024-01-16T03:20:28.303Z,651.9
2024-01-16T03:21:30.137Z,651.8
2024-01-16T03:22:31.869Z,651.3
2024-01-16T03:23:33.938Z,650.9
2024-01-16T03:24:35.692Z,650.4
2024-01-16T03:25:37.413Z,649.8
2024-01-16T03:26:39.502Z,649.4
2024-01-16T03:27:41.290Z,649.2
2024-01-16T03:28:43.047Z,649.3
2024-01-16T03:29:45.548Z,648.8
2024-01-16T03:30:48.049Z,648.6
2024-01-16T03:31:50.149Z,648.5
2024-01-16T03:32:52.518Z,648
2024-01-16T03:33:54.883Z,647.8
2024-01-16T03:34:56.761Z,647.5
2024-01-16T03:35:58.695Z,647.1
2024-01-16T03:37:00.491Z,646.7
2024-01-16T03:38:02.255Z,647.3
2024-01-16T03:39:03.961Z,646.7
2024-01-16T03:40:05.668Z,646.5
2024-01-16T03:41:07.684Z,646.1
2024-01-16T03:42:09.460Z,645.6
2024-01-16T03:43:11.169Z,645.9
2024-01-16T03:44:13.149Z,645.4
2024-01-16T03:45:18.736Z,644.9
2024-01-16T03:46:20.539Z,644.8
2024-01-16T03:47:22.856Z,644.1
2024-01-16T03:48:25.538Z,644.6
2024-01-16T03:49:28.122Z,644.2
2024-01-16T03:50:30.364Z,644
2024-01-16T03:51:32.243Z,643.8
2024-01-16T03:52:33.950Z,643.2
2024-01-16T03:53:35.992Z,643.3
2024-01-16T03:54:37.863Z,643.7
2024-01-16T03:55:39.651Z,643.4
2024-01-16T03:56:41.736Z,642.5
2024-01-16T03:57:43.543Z,642.8
2024-01-16T03:58:45.355Z,642.6
2024-01-16T03:59:47.896Z,642
2024-01-16T04:00:49.881Z,642.1
2024-01-16T04:01:51.735Z,641.8
2024-01-16T04:02:53.938Z,641.7
2024-01-16T04:03:56.193Z,641.3
2024-01-16T04:04:58.159Z,641.3
2024-01-16T04:06:01.194Z,640.9
2024-01-16T04:07:03.174Z,640.7
2024-01-16T04:08:05.078Z,640.5
2024-01-16T04:09:07.051Z,640.1
2024-01-16T04:10:08.810Z,639.5
2024-01-16T04:11:10.663Z,639.3
2024-01-16T04:12:12.509Z,639.7
2024-01-16T04:13:14.266Z,639.1
2024-01-16T04:14:16.228Z,639.1
2024-01-16T04:15:24.199Z,638.5
2024-01-16T04:16:26.027Z,638.3
2024-01-16T04:17:27.997Z,638
2024-01-16T04:18:30.498Z,637.9
2024-01-16T04:19:32.842Z,637.8
2024-01-16T04:20:34.974Z,637.2
2024-01-16T04:21:36.713Z,636.4
2024-01-16T04:22:38.465Z,637.5
2024-01-16T04:23:40.443Z,637.2
2024-01-16T04:24:42.177Z,637
2024-01-16T04:25:44.054Z,636.6
2024-01-16T04:26:46.782Z,636.5
2024-01-16T04:27:48.730Z,636.4
2024-01-16T04:28:50.480Z,636.4
2024-01-16T04:29:53.189Z,636.4
2024-01-16T04:30:55.335Z,636.3
2024-01-16T04:31:57.318Z,636.7
2024-01-16T04:32:59.799Z,636.4
2024-01-16T04:34:02.210Z,636
2024-01-16T04:35:04.108Z,635.7
2024-01-16T04:36:05.901Z,635.8
2024-01-16T04:37:07.612Z,635.2
2024-01-16T04:38:09.496Z,635.1
2024-01-16T04:39:11.443Z,634.7
2024-01-16T04:40:13.162Z,634.9
2024-01-16T04:41:15.039Z,635.1
2024-01-16T04:42:16.808Z,634.7
2024-01-16T04:43:18.621Z,634.3
2024-01-16T04:44:20.505Z,634.5
2024-01-16T04:45:22.400Z,634.2
2024-01-16T04:46:24.135Z,634.7
2024-01-16T04:47:26.483Z,634.6
2024-01-16T04:48:28.820Z,634.5
2024-01-16T04:49:31.295Z,634.6
2024-01-16T04:50:34.337Z,634.1
2024-01-16T04:51:36.185Z,634
2024-01-16T04:52:37.914Z,634.3
2024-01-16T04:53:39.844Z,633.2
2024-01-16T04:54:41.631Z,633
2024-01-16T04:55:43.410Z,632.9
2024-01-16T04:56:45.725Z,632.5
2024-01-16T04:57:47.665Z,632.5
2024-01-16T04:58:49.571Z,631.7
2024-01-16T04:59:51.702Z,631.9
2024-01-16T05:00:53.934Z,631.1
2024-01-16T05:01:55.745Z,630.7
2024-01-16T05:02:58.116Z,630.2
2024-01-16T05:04:00.614Z,630
2024-01-16T05:05:02.908Z,629.7
2024-01-16T05:06:05.483Z,630
2024-01-16T05:07:07.517Z,629.8
2024-01-16T05:08:09.871Z,629.4
2024-01-16T05:09:11.687Z,629
2024-01-16T05:10:13.490Z,629.2
2024-01-16T05:11:15.406Z,628.5
2024-01-16T05:12:17.151Z,628.3
2024-01-16T05:13:18.951Z,628
2024-01-16T05:14:21.304Z,627.5
2024-01-16T05:15:23.183Z,627.6
2024-01-16T05:16:25.030Z,627.4
2024-01-16T05:17:27.213Z,627.1
2024-01-16T05:18:29.594Z,626.8
2024-01-16T05:19:31.707Z,626.4
2024-01-16T05:20:33.954Z,626
2024-01-16T05:21:35.764Z,626.2
2024-01-16T05:22:37.684Z,626.2
2024-01-16T05:23:39.728Z,626
2024-01-16T05:24:41.575Z,626
2024-01-16T05:25:43.355Z,626.1
2024-01-16T05:26:45.406Z,625.6
2024-01-16T05:27:47.281Z,625.3
2024-01-16T05:28:49.041Z,624.3
2024-01-16T05:29:51.326Z,624.7
2024-01-16T05:30:53.616Z,624.2
2024-01-16T05:31:55.638Z,624.3
2024-01-16T05:32:57.902Z,623.3
2024-01-16T05:34:00.299Z,623.5
2024-01-16T05:35:02.381Z,622.9
2024-01-16T05:36:04.493Z,622.6
2024-01-16T05:37:06.352Z,622.7
2024-01-16T05:38:08.521Z,622.2
2024-01-16T05:39:10.327Z,622.5
2024-01-16T05:40:12.095Z,622
2024-01-16T05:41:14.037Z,621.7
2024-01-16T05:42:15.999Z,621.8
2024-01-16T05:43:17.886Z,622
2024-01-16T05:44:19.859Z,622
2024-01-16T05:45:21.664Z,620.8
2024-01-16T05:46:23.408Z,620.8
2024-01-16T05:47:25.306Z,620.2
2024-01-16T05:48:27.373Z,619.6
2024-01-16T05:49:29.750Z,619.9
2024-01-16T05:50:32.404Z,619
2024-01-16T05:51:34.284Z,618.6
2024-01-16T05:52:36.083Z,618.7
2024-01-16T05:53:38.960Z,619
2024-01-16T05:54:40.686Z,618.6
2024-01-16T05:55:42.449Z,618
2024-01-16T05:56:44.546Z,617.9
2024-01-16T05:57:46.356Z,617.6
2024-01-16T05:58:48.107Z,616.5
2024-01-16T05:59:50.149Z,616.2
2024-01-16T06:00:52.343Z,615.6
2024-01-16T06:01:54.220Z,615.7
2024-01-16T06:02:56.348Z,615.2
2024-01-16T06:03:58.838Z,615.1
2024-01-16T06:05:00.932Z,614.6
2024-01-16T06:06:03.384Z,614.5
2024-01-16T06:07:05.339Z,614.3
2024-01-16T06:08:07.476Z,613.7
2024-01-16T06:09:09.347Z,613.5
2024-01-16T06:10:11.106Z,613.4
2024-01-16T06:11:15.913Z,613
2024-01-16T06:12:18.833Z,612.3
2024-01-16T06:13:20.672Z,612.6
2024-01-16T06:14:23.221Z,612
2024-01-16T06:15:25.088Z,612.1
2024-01-16T06:16:26.870Z,611.4
2024-01-16T06:17:29.180Z,611.9
2024-01-16T06:18:31.527Z,611.1
2024-01-16T06:19:34.005Z,610.9
2024-01-16T06:20:36.196Z,610.6
2024-01-16T06:21:38.095Z,610.3
2024-01-16T06:22:39.958Z,610
2024-01-16T06:23:42.260Z,609.7
2024-01-16T06:24:44.173Z,609.6
2024-01-16T06:25:45.920Z,609.3
2024-01-16T06:26:48.200Z,608.8
2024-01-16T06:27:50.202Z,608.1
2024-01-16T06:28:52.029Z,608.1
2024-01-16T06:29:54.219Z,608
2024-01-16T06:30:56.843Z,608.1
2024-01-16T06:31:59.005Z,607.9
2024-01-16T06:33:01.668Z,607.5
2024-01-16T06:34:04.264Z,606.7
2024-01-16T06:35:06.184Z,607.1
2024-01-16T06:36:08.419Z,606.3
2024-01-16T06:37:10.330Z,606.6
2024-01-16T06:38:12.379Z,606
2024-01-16T06:39:14.254Z,605.7
2024-01-16T06:40:16.020Z,604.9
2024-01-16T06:41:17.924Z,604.8
2024-01-16T06:42:19.674Z,604.5
2024-01-16T06:43:21.408Z,604.3
2024-01-16T06:44:23.476Z,604.2
2024-01-16T06:45:25.261Z,604
2024-01-16T06:46:27.052Z,604
2024-01-16T06:47:29.601Z,604.1
2024-01-16T06:48:32.329Z,604.2
2024-01-16T06:49:34.957Z,603.9
2024-01-16T06:50:37.134Z,603.2
2024-01-16T06:51:39.053Z,603
2024-01-16T06:52:40.878Z,602.9
2024-01-16T06:53:42.919Z,602.7
2024-01-16T06:54:44.807Z,602.2
2024-01-16T06:55:46.711Z,602.3
2024-01-16T06:56:48.965Z,601.8
2024-01-16T06:57:50.887Z,602.2
2024-01-16T06:58:52.645Z,601.7
2024-01-16T06:59:54.722Z,601.6
2024-01-16T07:00:56.961Z,601.5
2024-01-16T07:01:58.742Z,601.2
2024-01-16T07:03:00.536Z,600.1
2024-01-16T07:04:02.457Z,599.6
2024-01-16T07:05:04.471Z,599.8
2024-01-16T07:06:06.972Z,599.7
2024-01-16T07:07:08.944Z,599.8
2024-01-16T07:08:10.885Z,599.5
2024-01-16T07:09:12.742Z,599
2024-01-16T07:10:14.765Z,599.1
2024-01-16T07:11:16.781Z,599.4
2024-01-16T07:12:18.507Z,599.8
2024-01-16T07:13:20.267Z,599.5
2024-01-16T07:14:22.294Z,598.8
2024-01-16T07:15:24.254Z,598.6
2024-01-16T07:16:26.069Z,597.9
2024-01-16T07:17:28.271Z,597.6
2024-01-16T07:18:31.064Z,597.2
2024-01-16T07:19:33.015Z,596.9
2024-01-16T07:20:34.919Z,596.6
2024-01-16T07:21:36.733Z,596.6
2024-01-16T07:22:38.697Z,596.4
2024-01-16T07:23:40.800Z,596.6
2024-01-16T07:24:42.623Z,596.5
2024-01-16T07:25:47.086Z,596.2
2024-01-16T07:26:49.454Z,595.8
2024-01-16T07:27:51.326Z,595.3
2024-01-16T07:28:53.081Z,594.8
2024-01-16T07:29:55.183Z,595.3
2024-01-16T07:30:57.659Z,595.5
2024-01-16T07:31:59.616Z,595.2
2024-01-16T07:33:02.307Z,595.2
2024-01-16T07:34:05.067Z,594.9
2024-01-16T07:35:06.917Z,594.7
2024-01-16T07:36:08.731Z,594.5
2024-01-16T07:37:10.518Z,593.7
2024-01-16T07:38:12.333Z,594.2
2024-01-16T07:39:14.091Z,593.8
2024-01-16T07:40:15.894Z,593.2
2024-01-16T07:41:18.132Z,593.7
2024-01-16T07:42:20.065Z,593.7
2024-01-16T07:43:21.937Z,593.5
2024-01-16T07:44:23.792Z,594.2
2024-01-16T07:45:25.584Z,593.4
2024-01-16T07:46:27.311Z,593.2
2024-01-16T07:47:29.617Z,593.3
2024-01-16T07:48:32.214Z,593.3
2024-01-16T07:49:34.618Z,593.2
2024-01-16T07:50:36.680Z,593.8
2024-01-16T07:51:38.579Z,593.4
2024-01-16T07:52:40.272Z,592.8
2024-01-16T07:53:42.324Z,592.5
2024-01-16T07:54:44.073Z,592.4
2024-01-16T07:55:45.830Z,592.4
2024-01-16T07:56:48.241Z,592.1
2024-01-16T07:57:50.161Z,591.5
2024-01-16T07:58:51.948Z,591.2
2024-01-16T07:59:54.203Z,590.8
2024-01-16T08:00:56.332Z,590.5
2024-01-16T08:01:58.083Z,589.7
2024-01-16T08:03:00.444Z,589.7
2024-01-16T08:04:02.882Z,588.9
2024-01-16T08:05:04.867Z,588.4
2024-01-16T08:06:07.366Z,588.3
2024-01-16T08:07:09.284Z,588.2
2024-01-16T08:08:11.623Z,587.9
2024-01-16T08:09:13.940Z,588.1
2024-01-16T08:10:20.370Z,587.4
2024-01-16T08:11:22.428Z,587.4
2024-01-16T08:12:24.374Z,587.5
2024-01-16T08:13:26.190Z,587.3
2024-01-16T08:14:28.120Z,587.3
2024-01-16T08:15:29.959Z,587.5
2024-01-16T08:16:31.774Z,587.1
2024-01-16T08:17:34.269Z,587.5
2024-01-16T08:18:36.973Z,586.8
2024-01-16T08:19:39.266Z,586.5
2024-01-16T08:20:41.428Z,586.1
2024-01-16T08:21:43.210Z,585.7
2024-01-16T08:22:45.064Z,585.9
2024-01-16T08:23:47.059Z,585.9
2024-01-16T08:24:48.973Z,585.3
2024-01-16T08:25:50.698Z,585.5
2024-01-16T08:26:53.079Z,584.8
2024-01-16T08:27:54.957Z,584.5
2024-01-16T08:28:56.732Z,584.4
2024-01-16T08:29:58.808Z,584.3
2024-01-16T08:31:00.978Z,584.5
2024-01-16T08:32:02.949Z,584.6
2024-01-16T08:33:05.663Z,584.3
2024-01-16T08:34:08.504Z,584.9
2024-01-16T08:35:11.169Z,584.8
2024-01-16T08:36:13.274Z,584.7
2024-01-16T08:37:15.264Z,583.9
2024-01-16T08:38:17.154Z,583.2
2024-01-16T08:39:18.947Z,582.8
2024-01-16T08:40:20.798Z,582.6
2024-01-16T08:41:22.962Z,582.5
2024-01-16T08:42:24.921Z,582.2
2024-01-16T08:43:26.781Z,582.1
2024-01-16T08:44:28.818Z,582.4
2024-01-16T08:45:30.716Z,582.1
2024-01-16T08:46:32.552Z,582.1
2024-01-16T08:47:35.115Z,581.7
2024-01-16T08:48:38.267Z,581.4
2024-01-16T08:49:40.894Z,581.4
2024-01-16T08:50:42.996Z,581.3
2024-01-16T08:51:44.768Z,581.1
2024-01-16T08:52:46.559Z,581
2024-01-16T08:53:48.678Z,580.5
2024-01-16T08:54:50.487Z,580.4
2024-01-16T08:55:52.215Z,580
2024-01-16T08:56:54.435Z,579.9
2024-01-16T08:57:56.242Z,579.2
2024-01-16T08:58:58.009Z,579.3
2024-01-16T09:00:00.258Z,579.5
2024-01-16T09:01:02.398Z,579.4
2024-01-16T09:02:04.188Z,579.1
2024-01-16T09:03:06.591Z,578.6
2024-01-16T09:04:08.461Z,578.2
2024-01-16T09:05:10.974Z,578.1
2024-01-16T09:06:13.758Z,578.3
2024-01-16T09:07:16.287Z,578.2
2024-01-16T09:08:18.265Z,578.1
2024-01-16T09:09:20.589Z,577.9
2024-01-16T09:10:22.412Z,578.2
2024-01-16T09:11:24.363Z,578
2024-01-16T09:12:26.209Z,577.5
2024-01-16T09:13:27.973Z,577.8
2024-01-16T09:14:30.043Z,578.3
2024-01-16T09:15:31.961Z,578.1
2024-01-16T09:16:33.736Z,577.9
2024-01-16T09:17:36.438Z,578.3
2024-01-16T09:18:39.276Z,578.2
2024-01-16T09:19:41.460Z,578.2
2024-01-16T09:20:43.515Z,577.9
2024-01-16T09:21:45.318Z,577.9
2024-01-16T09:22:47.106Z,577.8
2024-01-16T09:23:49.168Z,578
2024-01-16T09:24:50.973Z,577.9
2024-01-16T09:25:52.791Z,577.8
2024-01-16T09:26:55.000Z,577.9
2024-01-16T09:27:56.798Z,578
2024-01-16T09:28:58.582Z,577.9
2024-01-16T09:30:00.832Z,577.9
2024-01-16T09:31:03.245Z,577.7
2024-01-16T09:32:05.235Z,577.7
2024-01-16T09:33:07.543Z,577.1
2024-01-16T09:34:11.160Z,576.9
2024-01-16T09:35:13.603Z,577
2024-01-16T09:36:15.490Z,576.8
2024-01-16T09:37:17.281Z,576.8
2024-01-16T09:38:24.204Z,576.4
2024-01-16T09:39:26.217Z,577.1
2024-01-16T09:40:27.999Z,577.3
2024-01-16T09:41:30.141Z,577.1
2024-01-16T09:42:31.952Z,577.3
2024-01-16T09:43:33.697Z,577.6
2024-01-16T09:44:35.894Z,577.3
2024-01-16T09:45:38.341Z,577.7
2024-01-16T09:46:40.494Z,577.4
2024-01-16T09:47:43.771Z,577.2
2024-01-16T09:48:46.443Z,577.1
2024-01-16T09:49:48.493Z,576.8
2024-01-16T09:50:50.581Z,576.8
2024-01-16T09:51:52.432Z,576.6
2024-01-16T09:53:00.668Z,576.6
2024-01-16T09:54:02.986Z,576.4
2024-01-16T09:55:04.950Z,576.1
2024-01-16T09:56:06.792Z,576.3
2024-01-16T09:57:08.594Z,576.2
2024-01-16T09:58:10.355Z,575.7
2024-01-16T09:59:12.252Z,575.6
2024-01-16T10:00:14.257Z,576
2024-01-16T10:01:16.456Z,575.8
2024-01-16T10:02:18.725Z,575.7
2024-01-16T10:03:20.803Z,575.9
2024-01-16T10:04:22.894Z,576.1
2024-01-16T10:05:25.326Z,575.7
2024-01-16T10:06:27.762Z,576.2
2024-01-16T10:07:29.966Z,576.1
2024-01-16T10:08:32.142Z,576.5
2024-01-16T10:09:33.997Z,576.4
2024-01-16T10:10:53.772Z,576.3
2024-01-16T10:11:56.219Z,576.3
2024-01-16T10:12:58.170Z,576.1
2024-01-16T10:14:00.096Z,575.8
2024-01-16T10:15:02.421Z,575.9
2024-01-16T10:16:04.327Z,576
2024-01-16T10:17:06.162Z,576.2
2024-01-16T10:18:08.784Z,576.5
2024-01-16T10:19:11.253Z,576
2024-01-16T10:20:16.212Z,576.2
2024-01-16T10:21:18.043Z,576.4
2024-01-16T10:22:27.249Z,576.5
2024-01-16T10:23:30.038Z,576.6
2024-01-16T10:24:31.860Z,576.4
2024-01-16T10:25:33.610Z,575.9
2024-01-16T10:26:35.518Z,575.8
2024-01-16T10:27:37.301Z,575.7
2024-01-16T10:28:39.084Z,575.2
2024-01-16T10:29:51.583Z,575.4
2024-01-16T10:30:54.024Z,575.7
2024-01-16T10:31:56.663Z,576.2
2024-01-16T10:32:59.291Z,576.3
2024-01-16T10:34:02.410Z,576.4
2024-01-16T10:35:05.125Z,576.5
2024-01-16T10:36:07.230Z,576.1
2024-01-16T10:37:09.209Z,576.2
2024-01-16T10:38:11.587Z,576.2
2024-01-16T10:39:13.481Z,575.3
2024-01-16T10:40:15.287Z,575.1
2024-01-16T10:41:17.465Z,575.3
2024-01-16T10:42:19.625Z,575.3
2024-01-16T10:43:21.420Z,575
2024-01-16T10:44:23.324Z,574.7
2024-01-16T10:45:25.219Z,574.4
2024-01-16T10:46:27.125Z,574.5
2024-01-16T10:47:29.510Z,574.8
2024-01-16T10:48:31.965Z,575.4
2024-01-16T10:49:47.134Z,575
2024-01-16T10:50:49.208Z,574.7
2024-01-16T10:51:51.027Z,573.9
2024-01-16T10:52:52.799Z,573.8
2024-01-16T10:53:54.879Z,573.8
2024-01-16T10:54:56.742Z,574.1
2024-01-16T10:55:58.852Z,574.1
2024-01-16T10:57:00.893Z,574.6
2024-01-16T10:58:02.806Z,574.8
2024-01-16T10:59:04.610Z,574.7
2024-01-16T11:00:06.471Z,574.8
2024-01-16T11:01:08.539Z,574.9
2024-01-16T11:02:10.439Z,575.1
2024-01-16T11:03:12.431Z,574.8
2024-01-16T11:04:17.195Z,574.9
2024-01-16T11:05:19.622Z,574.8
2024-01-16T11:06:22.131Z,574.9
2024-01-16T11:07:23.964Z,575.3
2024-01-16T11:08:25.885Z,575.2
2024-01-16T11:09:27.731Z,574.6
2024-01-16T11:10:29.525Z,574.6
2024-01-16T11:11:31.606Z,574.3
2024-01-16T11:12:33.447Z,574.4
2024-01-16T11:13:35.251Z,574.1
2024-01-16T11:14:37.213Z,574.2
2024-01-16T11:15:39.005Z,574.2
2024-01-16T11:16:40.863Z,574.1
2024-01-16T11:17:43.060Z,573.7
2024-01-16T11:18:45.650Z,574
2024-01-16T11:21:03.247Z,573.4
2024-01-16T11:22:09.927Z,572.8
2024-01-16T11:23:11.945Z,573.1
2024-01-16T11:24:13.733Z,573.4
2024-01-16T11:25:15.557Z,573.5
2024-01-16T11:26:17.636Z,573.9
2024-01-16T11:27:19.461Z,573.8
2024-01-16T11:28:21.376Z,574
2024-01-16T11:29:23.447Z,573.6
2024-01-16T11:30:25.480Z,573.9
2024-01-16T11:31:27.361Z,573.6
2024-01-16T11:32:34.164Z,573.4
2024-01-16T11:33:36.798Z,573.5
2024-01-16T11:34:39.300Z,573.4
2024-01-16T11:35:41.684Z,573.5
2024-01-16T11:36:43.581Z,573.4
2024-01-16T11:37:45.451Z,573.1
2024-01-16T11:38:47.408Z,573.4
2024-01-16T11:39:49.320Z,572.9
2024-01-16T11:40:51.075Z,573
2024-01-16T11:41:53.601Z,573
2024-01-16T11:42:55.608Z,572.9
2024-01-16T11:43:57.364Z,572.7
2024-01-16T11:44:59.656Z,572.4
2024-01-16T11:46:01.777Z,572.4
2024-01-16T11:47:03.909Z,572.7
2024-01-16T11:48:06.679Z,572.7
2024-01-16T11:49:09.133Z,572.9
2024-01-16T11:50:11.321Z,572.8
2024-01-16T11:51:13.293Z,573.2
2024-01-16T11:52:15.128Z,572.7
2024-01-16T11:53:17.206Z,572.6
2024-01-16T11:54:19.054Z,572.5
2024-01-16T11:55:20.834Z,572.3
2024-01-16T11:56:49.147Z,571.7
2024-01-16T11:57:51.190Z,571.8
2024-01-16T11:58:52.906Z,571.9
2024-01-16T11:59:54.947Z,571.6
2024-01-16T12:00:57.080Z,571.8
2024-01-16T12:01:58.942Z,571.5
2024-01-16T12:03:01.141Z,571.5
2024-01-16T12:04:03.222Z,571.8
2024-01-16T12:05:05.377Z,571.8
2024-01-16T12:06:08.560Z,571.8
2024-01-16T12:07:11.176Z,572.1
2024-01-16T12:08:13.229Z,571.8
2024-01-16T12:09:15.042Z,571.3
2024-01-16T12:10:16.885Z,571
2024-01-16T12:11:30.366Z,571
2024-01-16T12:12:39.317Z,570.6
2024-01-16T12:13:41.058Z,570.2
2024-01-16T12:14:42.919Z,570.1
2024-01-16T12:15:44.761Z,569.9
2024-01-16T12:16:46.567Z,570
2024-01-16T12:17:49.072Z,569.8
2024-01-16T12:18:51.710Z,569.5
2024-01-16T12:19:54.168Z,569.1
2024-01-16T12:20:56.290Z,569.1
2024-01-16T12:21:58.126Z,569.3
2024-01-16T12:22:59.984Z,569.3
2024-01-16T12:24:19.064Z,569.4
2024-01-16T12:25:20.962Z,569.8
2024-01-16T12:26:23.060Z,569.8
2024-01-16T12:27:24.974Z,569.8
2024-01-16T12:28:34.814Z,569.5
2024-01-16T12:29:37.044Z,569.1
2024-01-16T12:30:39.373Z,569.4
2024-01-16T12:31:41.344Z,569.4
2024-01-16T12:32:44.283Z,569
2024-01-16T12:34:05.315Z,569.3
2024-01-16T12:35:07.406Z,568.8
2024-01-16T12:36:09.339Z,569.2
2024-01-16T12:37:11.121Z,568.8
2024-01-16T12:38:13.099Z,568.6
2024-01-16T12:39:15.019Z,568.3
2024-01-16T12:40:16.842Z,568.6
2024-01-16T12:41:43.241Z,568.7
2024-01-16T12:42:45.454Z,568.8
2024-01-16T12:44:16.470Z,568.7
2024-01-16T12:45:19.656Z,568.3
2024-01-16T12:46:21.507Z,568.1
2024-01-16T12:47:24.129Z,567.9
2024-01-16T12:48:27.898Z,567.5
2024-01-16T12:49:30.524Z,567
2024-01-16T12:50:32.846Z,566.8
2024-01-16T12:51:34.800Z,566.9
2024-01-16T12:52:36.590Z,566.7
2024-01-16T12:53:39.553Z,566.8
2024-01-16T12:54:41.603Z,566.9
2024-01-16T12:55:43.383Z,566.6
2024-01-16T12:56:45.615Z,566.5
2024-01-16T12:57:50.174Z,566.6
2024-01-16T12:58:51.931Z,566.6
2024-01-16T12:59:54.513Z,567.3
2024-01-16T13:00:56.452Z,567.9
2024-01-16T13:01:58.272Z,567.5
2024-01-16T13:03:01.024Z,568.1
2024-01-16T13:04:02.895Z,568.4
2024-01-16T13:05:05.495Z,568.6
2024-01-16T13:06:08.211Z,568.3
2024-01-16T13:07:11.013Z,568.4
2024-01-16T13:08:13.072Z,567.8
2024-01-16T13:09:14.932Z,567.6
2024-01-16T13:10:21.119Z,567.9
2024-01-16T13:11:40.062Z,567.7
2024-01-16T13:12:42.348Z,568.1
2024-01-16T13:13:44.201Z,567.9
2024-01-16T13:14:46.215Z,567.7
2024-01-16T13:15:48.134Z,567.8
2024-01-16T13:16:49.958Z,567.6
2024-01-16T13:17:52.304Z,567.2
2024-01-16T13:18:54.372Z,567.1
2024-01-16T13:19:56.321Z,566.6
2024-01-16T13:20:58.574Z,566.4
2024-01-16T13:22:00.579Z,566.5
2024-01-16T13:23:02.407Z,566.8
2024-01-16T13:24:04.469Z,566.1
2024-01-16T13:25:10.527Z,565.6
2024-01-16T13:26:12.686Z,565.8
2024-01-16T13:27:14.742Z,565.7
2024-01-16T13:28:16.711Z,565.7
2024-01-16T13:29:18.805Z,565.1
2024-01-16T13:30:28.246Z,565.2